Terminal Aerodrome Forecast
Issued by NWS Wichita, KS

Home | Current Version | Previous Version | Text Only | Print | Product List | Glossary On
Versions: 1 2 3 4 5 6 7 8 9 10 11 12 13 14
377
FTUS43 KICT 232339
TAFICT
TAF
KICT 232339Z 2400/2424 15011KT P6SM SKC
     FM240800 16014KT P6SM SCT250 WS020/20040KT
     FM241500 18017G25KT P6SM SCT150
     FM241900 20018G26KT P6SM BKN150=

USA.gov is the U.S. government's official web portal to all federal, state and local government web resources and services.